sensor_id;sensor_type;location;lat;lon;timestamp;P1;durP1;ratioP1;P2;durP2;ratioP2
57858;SDS011;49153;45.568;11.894;2022-11-02T00:00:26;50.03;;;33.75;;
57858;SDS011;49153;45.568;11.894;2022-11-02T00:02:53;48.05;;;32.78;;
57858;SDS011;49153;45.568;11.894;2022-11-02T00:05:18;47.45;;;32.70;;
57858;SDS011;49153;45.568;11.894;2022-11-02T00:07:49;49.30;;;33.73;;
57858;SDS011;49153;45.568;11.894;2022-11-02T00:10:16;48.38;;;33.88;;
57858;SDS011;49153;45.568;11.894;2022-11-02T00:12:42;49.20;;;32.88;;
57858;SDS011;49153;45.568;11.894;2022-11-02T00:15:08;47.53;;;33.08;;
57858;SDS011;49153;45.568;11.894;2022-11-02T00:17:34;45.70;;;31.92;;
57858;SDS011;49153;45.568;11.894;2022-11-02T00:20:01;47.72;;;31.90;;
57858;SDS011;49153;45.568;11.894;2022-11-02T00:22:28;45.08;;;30.92;;
57858;SDS011;49153;45.568;11.894;2022-11-02T00:24:53;47.33;;;32.17;;
57858;SDS011;49153;45.568;11.894;2022-11-02T00:27:19;47.15;;;32.72;;
57858;SDS011;49153;45.568;11.894;2022-11-02T00:29:47;50.38;;;33.50;;
57858;SDS011;49153;45.568;11.894;2022-11-02T00:32:13;54.38;;;35.08;;
57858;SDS011;49153;45.568;11.894;2022-11-02T00:34:39;55.20;;;35.22;;
57858;SDS011;49153;45.568;11.894;2022-11-02T00:37:04;50.90;;;34.33;;
57858;SDS011;49153;45.568;11.894;2022-11-02T00:39:30;52.50;;;35.75;;
57858;SDS011;49153;45.568;11.894;2022-11-02T00:41:55;54.38;;;35.38;;
57858;SDS011;49153;45.568;11.894;2022-11-02T00:44:20;53.13;;;35.30;;
57858;SDS011;49153;45.568;11.894;2022-11-02T00:46:46;52.42;;;35.70;;
57858;SDS011;49153;45.568;11.894;2022-11-02T00:49:11;52.00;;;34.97;;
57858;SDS011;49153;45.568;11.894;2022-11-02T00:51:37;50.83;;;34.55;;
57858;SDS011;49153;45.568;11.894;2022-11-02T00:54:04;53.05;;;35.28;;
57858;SDS011;49153;45.568;11.894;2022-11-02T00:56:30;55.20;;;36.78;;
57858;SDS011;49153;45.568;11.894;2022-11-02T00:58:56;54.65;;;35.78;;
57858;SDS011;49153;45.568;11.894;2022-11-02T01:01:27;54.70;;;35.35;;
57858;SDS011;49153;45.568;11.894;2022-11-02T01:03:55;56.70;;;35.55;;
57858;SDS011;49153;45.568;11.894;2022-11-02T01:06:21;56.40;;;35.20;;
57858;SDS011;49153;45.568;11.894;2022-11-02T01:08:46;52.58;;;34.83;;
57858;SDS011;49153;45.568;11.894;2022-11-02T01:11:13;55.42;;;35.03;;
57858;SDS011;49153;45.568;11.894;2022-11-02T01:13:40;52.78;;;34.50;;
57858;SDS011;49153;45.568;11.894;2022-11-02T01:16:06;51.20;;;34.63;;
57858;SDS011;49153;45.568;11.894;2022-11-02T01:18:32;53.55;;;34.97;;
57858;SDS011;49153;45.568;11.894;2022-11-02T01:20:57;54.38;;;35.17;;
57858;SDS011;49153;45.568;11.894;2022-11-02T01:23:23;51.35;;;33.67;;
57858;SDS011;49153;45.568;11.894;2022-11-02T01:25:49;54.40;;;35.65;;
57858;SDS011;49153;45.568;11.894;2022-11-02T01:28:15;52.83;;;34.10;;
57858;SDS011;49153;45.568;11.894;2022-11-02T01:30:41;53.17;;;34.22;;
57858;SDS011;49153;45.568;11.894;2022-11-02T01:33:06;54.00;;;35.05;;
57858;SDS011;49153;45.568;11.894;2022-11-02T01:35:31;51.53;;;32.65;;
57858;SDS011;49153;45.568;11.894;2022-11-02T01:37:57;52.40;;;34.83;;
57858;SDS011;49153;45.568;11.894;2022-11-02T01:40:22;53.83;;;34.50;;
57858;SDS011;49153;45.568;11.894;2022-11-02T01:42:48;52.45;;;34.70;;
57858;SDS011;49153;45.568;11.894;2022-11-02T01:45:13;47.75;;;31.85;;
57858;SDS011;49153;45.568;11.894;2022-11-02T01:47:39;49.83;;;32.35;;
57858;SDS011;49153;45.568;11.894;2022-11-02T01:50:11;55.78;;;36.25;;
57858;SDS011;49153;45.568;11.894;2022-11-02T01:52:49;58.55;;;36.03;;
57858;SDS011;49153;45.568;11.894;2022-11-02T01:57:46;50.50;;;32.25;;
57858;SDS011;49153;45.568;11.894;2022-11-02T02:00:19;50.22;;;33.55;;
57858;SDS011;49153;45.568;11.894;2022-11-02T02:02:50;56.80;;;36.78;;
57858;SDS011;49153;45.568;11.894;2022-11-02T02:05:33;53.65;;;34.47;;
57858;SDS011;49153;45.568;11.894;2022-11-02T02:08:04;50.42;;;33.88;;
57858;SDS011;49153;45.568;11.894;2022-11-02T02:10:32;53.13;;;35.58;;
57858;SDS011;49153;45.568;11.894;2022-11-02T02:12:59;50.05;;;34.72;;
57858;SDS011;49153;45.568;11.894;2022-11-02T02:15:27;50.00;;;33.17;;
57858;SDS011;49153;45.568;11.894;2022-11-02T02:18:08;53.17;;;33.78;;
57858;SDS011;49153;45.568;11.894;2022-11-02T02:25:49;51.13;;;33.65;;
57858;SDS011;49153;45.568;11.894;2022-11-02T02:34:19;50.97;;;34.00;;
57858;SDS011;49153;45.568;11.894;2022-11-02T02:36:50;54.88;;;34.50;;
57858;SDS011;49153;45.568;11.894;2022-11-02T02:42:15;50.65;;;33.50;;
57858;SDS011;49153;45.568;11.894;2022-11-02T02:44:57;50.40;;;33.53;;
57858;SDS011;49153;45.568;11.894;2022-11-02T02:47:29;58.03;;;36.08;;
57858;SDS011;49153;45.568;11.894;2022-11-02T02:50:02;51.50;;;33.85;;
57858;SDS011;49153;45.568;11.894;2022-11-02T02:52:41;50.13;;;33.65;;
57858;SDS011;49153;45.568;11.894;2022-11-02T02:55:15;45.55;;;31.48;;
57858;SDS011;49153;45.568;11.894;2022-11-02T02:57:44;48.03;;;32.10;;
57858;SDS011;49153;45.568;11.894;2022-11-02T03:00:12;49.55;;;32.58;;
57858;SDS011;49153;45.568;11.894;2022-11-02T03:02:41;49.88;;;34.50;;
57858;SDS011;49153;45.568;11.894;2022-11-02T03:05:25;53.63;;;34.38;;
57858;SDS011;49153;45.568;11.894;2022-11-02T03:07:53;52.67;;;33.70;;
57858;SDS011;49153;45.568;11.894;2022-11-02T03:10:20;52.17;;;34.63;;
57858;SDS011;49153;45.568;11.894;2022-11-02T03:13:19;53.60;;;35.03;;
57858;SDS011;49153;45.568;11.894;2022-11-02T03:16:14;54.05;;;35.25;;
57858;SDS011;49153;45.568;11.894;2022-11-02T03:18:48;56.25;;;35.85;;
57858;SDS011;49153;45.568;11.894;2022-11-02T03:21:40;57.47;;;35.30;;
57858;SDS011;49153;45.568;11.894;2022-11-02T03:32:25;55.80;;;34.13;;
57858;SDS011;49153;45.568;11.894;2022-11-02T03:35:17;51.92;;;33.95;;
57858;SDS011;49153;45.568;11.894;2022-11-02T03:37:57;57.13;;;35.80;;
57858;SDS011;49153;45.568;11.894;2022-11-02T03:40:28;53.28;;;34.53;;
57858;SDS011;49153;45.568;11.894;2022-11-02T03:43:02;51.63;;;34.10;;
57858;SDS011;49153;45.568;11.894;2022-11-02T03:45:37;50.88;;;33.35;;
57858;SDS011;49153;45.568;11.894;2022-11-02T03:48:08;51.22;;;33.47;;
57858;SDS011;49153;45.568;11.894;2022-11-02T03:50:37;53.83;;;34.42;;
57858;SDS011;49153;45.568;11.894;2022-11-02T03:53:21;53.20;;;34.33;;
57858;SDS011;49153;45.568;11.894;2022-11-02T03:55:55;52.50;;;34.25;;
57858;SDS011;49153;45.568;11.894;2022-11-02T03:58:32;53.95;;;33.88;;
57858;SDS011;49153;45.568;11.894;2022-11-02T04:00:58;52.47;;;34.00;;
57858;SDS011;49153;45.568;11.894;2022-11-02T04:03:32;52.47;;;33.95;;
57858;SDS011;49153;45.568;11.894;2022-11-02T04:06:00;53.75;;;34.67;;
57858;SDS011;49153;45.568;11.894;2022-11-02T04:08:31;49.05;;;32.92;;
57858;SDS011;49153;45.568;11.894;2022-11-02T04:11:00;56.10;;;34.72;;
57858;SDS011;49153;45.568;11.894;2022-11-02T04:13:44;51.63;;;32.20;;
57858;SDS011;49153;45.568;11.894;2022-11-02T04:16:28;50.67;;;32.45;;
57858;SDS011;49153;45.568;11.894;2022-11-02T04:18:53;51.35;;;32.65;;
57858;SDS011;49153;45.568;11.894;2022-11-02T04:21:37;53.80;;;34.22;;
57858;SDS011;49153;45.568;11.894;2022-11-02T04:24:03;52.50;;;33.97;;
57858;SDS011;49153;45.568;11.894;2022-11-02T04:26:47;55.97;;;34.80;;
57858;SDS011;49153;45.568;11.894;2022-11-02T04:29:12;54.75;;;34.25;;
57858;SDS011;49153;45.568;11.894;2022-11-02T04:31:37;49.80;;;31.70;;
57858;SDS011;49153;45.568;11.894;2022-11-02T04:34:03;52.33;;;33.03;;
57858;SDS011;49153;45.568;11.894;2022-11-02T04:36:28;52.15;;;33.75;;
57858;SDS011;49153;45.568;11.894;2022-11-02T04:38:55;48.40;;;31.45;;
57858;SDS011;49153;45.568;11.894;2022-11-02T04:41:20;45.80;;;30.67;;
57858;SDS011;49153;45.568;11.894;2022-11-02T04:44:05;50.25;;;31.65;;
57858;SDS011;49153;45.568;11.894;2022-11-02T04:46:32;52.80;;;33.33;;
57858;SDS011;49153;45.568;11.894;2022-11-02T04:48:59;52.33;;;32.63;;
57858;SDS011;49153;45.568;11.894;2022-11-02T04:51:25;49.25;;;31.20;;
57858;SDS011;49153;45.568;11.894;2022-11-02T04:53:52;50.58;;;32.22;;
57858;SDS011;49153;45.568;11.894;2022-11-02T04:56:19;49.53;;;31.13;;
57858;SDS011;49153;45.568;11.894;2022-11-02T04:58:48;50.88;;;31.35;;
57858;SDS011;49153;45.568;11.894;2022-11-02T05:01:15;48.40;;;31.40;;
57858;SDS011;49153;45.568;11.894;2022-11-02T05:03:42;49.60;;;30.80;;
57858;SDS011;49153;45.568;11.894;2022-11-02T05:06:10;48.00;;;30.20;;
57858;SDS011;49153;45.568;11.894;2022-11-02T05:08:36;47.25;;;29.85;;
57858;SDS011;49153;45.568;11.894;2022-11-02T05:11:02;44.28;;;28.27;;
57858;SDS011;49153;45.568;11.894;2022-11-02T05:13:28;42.75;;;28.23;;
57858;SDS011;49153;45.568;11.894;2022-11-02T05:15:54;49.35;;;30.60;;
57858;SDS011;49153;45.568;11.894;2022-11-02T05:18:21;47.10;;;29.88;;
57858;SDS011;49153;45.568;11.894;2022-11-02T05:20:49;45.80;;;29.45;;
57858;SDS011;49153;45.568;11.894;2022-11-02T05:23:16;48.50;;;30.53;;
57858;SDS011;49153;45.568;11.894;2022-11-02T05:25:50;46.17;;;29.23;;
57858;SDS011;49153;45.568;11.894;2022-11-02T05:28:16;45.05;;;28.55;;
57858;SDS011;49153;45.568;11.894;2022-11-02T05:30:41;48.47;;;30.02;;
57858;SDS011;49153;45.568;11.894;2022-11-02T05:33:07;48.33;;;29.55;;
57858;SDS011;49153;45.568;11.894;2022-11-02T05:35:32;48.28;;;30.58;;
57858;SDS011;49153;45.568;11.894;2022-11-02T05:37:57;45.63;;;28.98;;
57858;SDS011;49153;45.568;11.894;2022-11-02T05:40:23;50.08;;;31.27;;
57858;SDS011;49153;45.568;11.894;2022-11-02T05:42:48;46.40;;;29.52;;
57858;SDS011;49153;45.568;11.894;2022-11-02T05:45:13;45.45;;;28.27;;
57858;SDS011;49153;45.568;11.894;2022-11-02T05:47:39;44.80;;;27.73;;
57858;SDS011;49153;45.568;11.894;2022-11-02T05:50:04;46.72;;;27.10;;
57858;SDS011;49153;45.568;11.894;2022-11-02T05:52:30;49.30;;;29.48;;
57858;SDS011;49153;45.568;11.894;2022-11-02T05:54:55;50.53;;;28.48;;
57858;SDS011;49153;45.568;11.894;2022-11-02T05:57:21;50.03;;;29.60;;
57858;SDS011;49153;45.568;11.894;2022-11-02T05:59:46;48.88;;;28.85;;
57858;SDS011;49153;45.568;11.894;2022-11-02T06:02:12;51.53;;;29.63;;
57858;SDS011;49153;45.568;11.894;2022-11-02T06:04:37;50.83;;;30.77;;
57858;SDS011;49153;45.568;11.894;2022-11-02T06:07:02;52.88;;;30.02;;
57858;SDS011;49153;45.568;11.894;2022-11-02T06:09:28;51.97;;;29.30;;
57858;SDS011;49153;45.568;11.894;2022-11-02T06:11:54;50.10;;;30.20;;
57858;SDS011;49153;45.568;11.894;2022-11-02T06:14:20;48.45;;;28.92;;
57858;SDS011;49153;45.568;11.894;2022-11-02T06:16:45;45.40;;;29.13;;
57858;SDS011;49153;45.568;11.894;2022-11-02T06:19:11;53.53;;;30.20;;
57858;SDS011;49153;45.568;11.894;2022-11-02T06:21:36;54.15;;;30.52;;
57858;SDS011;49153;45.568;11.894;2022-11-02T06:24:02;47.20;;;28.17;;
57858;SDS011;49153;45.568;11.894;2022-11-02T06:26:27;51.60;;;30.75;;
57858;SDS011;49153;45.568;11.894;2022-11-02T06:28:52;50.67;;;30.95;;
57858;SDS011;49153;45.568;11.894;2022-11-02T06:31:18;54.03;;;30.50;;
57858;SDS011;49153;45.568;11.894;2022-11-02T06:33:43;50.05;;;30.85;;
57858;SDS011;49153;45.568;11.894;2022-11-02T06:36:09;52.83;;;32.35;;
57858;SDS011;49153;45.568;11.894;2022-11-02T06:38:35;51.65;;;31.58;;
57858;SDS011;49153;45.568;11.894;2022-11-02T06:41:02;51.33;;;31.58;;
57858;SDS011;49153;45.568;11.894;2022-11-02T06:43:30;46.03;;;29.20;;
57858;SDS011;49153;45.568;11.894;2022-11-02T06:45:57;51.25;;;29.63;;
57858;SDS011;49153;45.568;11.894;2022-11-02T06:48:23;50.28;;;29.42;;
57858;SDS011;49153;45.568;11.894;2022-11-02T06:50:50;52.65;;;29.63;;
57858;SDS011;49153;45.568;11.894;2022-11-02T06:53:15;49.58;;;29.10;;
57858;SDS011;49153;45.568;11.894;2022-11-02T06:55:42;54.10;;;29.95;;
57858;SDS011;49153;45.568;11.894;2022-11-02T06:58:08;53.70;;;30.05;;
57858;SDS011;49153;45.568;11.894;2022-11-02T07:00:33;51.33;;;29.48;;
57858;SDS011;49153;45.568;11.894;2022-11-02T07:02:59;56.88;;;31.60;;
57858;SDS011;49153;45.568;11.894;2022-11-02T07:05:25;55.40;;;30.95;;
57858;SDS011;49153;45.568;11.894;2022-11-02T07:07:54;54.53;;;30.90;;
57858;SDS011;49153;45.568;11.894;2022-11-02T07:10:19;61.03;;;33.13;;
57858;SDS011;49153;45.568;11.894;2022-11-02T07:12:45;58.40;;;32.72;;
57858;SDS011;49153;45.568;11.894;2022-11-02T07:15:10;57.70;;;31.35;;
57858;SDS011;49153;45.568;11.894;2022-11-02T07:17:39;53.67;;;30.75;;
57858;SDS011;49153;45.568;11.894;2022-11-02T07:20:05;61.30;;;32.67;;
57858;SDS011;49153;45.568;11.894;2022-11-02T07:22:31;55.15;;;30.60;;
57858;SDS011;49153;45.568;11.894;2022-11-02T07:24:56;59.80;;;32.10;;
57858;SDS011;49153;45.568;11.894;2022-11-02T07:27:22;63.60;;;33.13;;
57858;SDS011;49153;45.568;11.894;2022-11-02T07:29:47;58.17;;;32.20;;
57858;SDS011;49153;45.568;11.894;2022-11-02T07:32:12;56.55;;;30.33;;
57858;SDS011;49153;45.568;11.894;2022-11-02T07:34:38;57.38;;;30.65;;
57858;SDS011;49153;45.568;11.894;2022-11-02T07:37:04;58.53;;;31.30;;
57858;SDS011;49153;45.568;11.894;2022-11-02T07:39:29;61.45;;;30.92;;
57858;SDS011;49153;45.568;11.894;2022-11-02T07:41:55;61.03;;;31.92;;
57858;SDS011;49153;45.568;11.894;2022-11-02T07:44:20;62.00;;;31.63;;
57858;SDS011;49153;45.568;11.894;2022-11-02T07:46:46;60.75;;;33.15;;
57858;SDS011;49153;45.568;11.894;2022-11-02T07:49:11;59.30;;;31.38;;
57858;SDS011;49153;45.568;11.894;2022-11-02T07:51:36;57.75;;;31.23;;
57858;SDS011;49153;45.568;11.894;2022-11-02T07:54:02;64.93;;;32.90;;
57858;SDS011;49153;45.568;11.894;2022-11-02T07:56:29;61.15;;;32.38;;
57858;SDS011;49153;45.568;11.894;2022-11-02T07:58:54;63.63;;;31.90;;
57858;SDS011;49153;45.568;11.894;2022-11-02T08:01:20;69.07;;;33.38;;
57858;SDS011;49153;45.568;11.894;2022-11-02T08:03:45;65.13;;;32.67;;
57858;SDS011;49153;45.568;11.894;2022-11-02T08:06:11;69.30;;;33.90;;
57858;SDS011;49153;45.568;11.894;2022-11-02T08:08:37;66.43;;;33.20;;
57858;SDS011;49153;45.568;11.894;2022-11-02T08:11:03;68.65;;;34.10;;
57858;SDS011;49153;45.568;11.894;2022-11-02T08:13:30;67.25;;;33.75;;
57858;SDS011;49153;45.568;11.894;2022-11-02T08:15:56;63.85;;;32.42;;
57858;SDS011;49153;45.568;11.894;2022-11-02T08:18:23;69.15;;;33.28;;
57858;SDS011;49153;45.568;11.894;2022-11-02T08:20:50;69.30;;;33.67;;
57858;SDS011;49153;45.568;11.894;2022-11-02T08:23:16;69.35;;;34.80;;
57858;SDS011;49153;45.568;11.894;2022-11-02T08:25:44;72.97;;;35.30;;
57858;SDS011;49153;45.568;11.894;2022-11-02T08:28:11;69.20;;;34.70;;
57858;SDS011;49153;45.568;11.894;2022-11-02T08:30:39;72.25;;;35.90;;
57858;SDS011;49153;45.568;11.894;2022-11-02T08:33:05;68.85;;;34.40;;
57858;SDS011;49153;45.568;11.894;2022-11-02T08:35:32;68.80;;;34.70;;
57858;SDS011;49153;45.568;11.894;2022-11-02T08:37:59;67.13;;;32.92;;
57858;SDS011;49153;45.568;11.894;2022-11-02T08:40:24;72.40;;;35.63;;
57858;SDS011;49153;45.568;11.894;2022-11-02T08:42:57;67.68;;;33.92;;
57858;SDS011;49153;45.568;11.894;2022-11-02T08:45:24;66.95;;;34.05;;
57858;SDS011;49153;45.568;11.894;2022-11-02T08:47:50;66.07;;;33.67;;
57858;SDS011;49153;45.568;11.894;2022-11-02T08:50:15;67.80;;;35.13;;
57858;SDS011;49153;45.568;11.894;2022-11-02T08:52:40;69.07;;;34.55;;
57858;SDS011;49153;45.568;11.894;2022-11-02T08:55:06;74.78;;;35.45;;
57858;SDS011;49153;45.568;11.894;2022-11-02T08:57:31;67.43;;;34.00;;
57858;SDS011;49153;45.568;11.894;2022-11-02T08:59:57;69.85;;;33.08;;
57858;SDS011;49153;45.568;11.894;2022-11-02T09:02:22;74.50;;;35.20;;
57858;SDS011;49153;45.568;11.894;2022-11-02T09:04:48;77.00;;;35.53;;
57858;SDS011;49153;45.568;11.894;2022-11-02T09:07:13;75.35;;;35.65;;
57858;SDS011;49153;45.568;11.894;2022-11-02T09:09:39;70.38;;;35.70;;
57858;SDS011;49153;45.568;11.894;2022-11-02T09:12:05;68.40;;;33.45;;
57858;SDS011;49153;45.568;11.894;2022-11-02T09:14:31;65.80;;;33.22;;
57858;SDS011;49153;45.568;11.894;2022-11-02T09:16:56;67.30;;;33.15;;
57858;SDS011;49153;45.568;11.894;2022-11-02T09:19:21;69.32;;;32.25;;
57858;SDS011;49153;45.568;11.894;2022-11-02T09:21:47;67.50;;;35.67;;
57858;SDS011;49153;45.568;11.894;2022-11-02T09:24:14;71.95;;;35.42;;
57858;SDS011;49153;45.568;11.894;2022-11-02T09:26:39;68.50;;;33.13;;
57858;SDS011;49153;45.568;11.894;2022-11-02T09:29:05;63.03;;;31.10;;
57858;SDS011;49153;45.568;11.894;2022-11-02T09:31:30;61.65;;;31.92;;
57858;SDS011;49153;45.568;11.894;2022-11-02T09:33:56;70.22;;;33.63;;
57858;SDS011;49153;45.568;11.894;2022-11-02T09:36:21;72.38;;;35.00;;
57858;SDS011;49153;45.568;11.894;2022-11-02T09:38:46;73.93;;;35.10;;
57858;SDS011;49153;45.568;11.894;2022-11-02T09:41:34;66.50;;;32.78;;
57858;SDS011;49153;45.568;11.894;2022-11-02T09:46:55;58.95;;;29.90;;
57858;SDS011;49153;45.568;11.894;2022-11-02T09:49:24;65.72;;;32.45;;
57858;SDS011;49153;45.568;11.894;2022-11-02T09:51:54;67.93;;;32.42;;
57858;SDS011;49153;45.568;11.894;2022-11-02T09:54:28;61.20;;;30.75;;
57858;SDS011;49153;45.568;11.894;2022-11-02T09:57:08;64.60;;;31.23;;
57858;SDS011;49153;45.568;11.894;2022-11-02T09:59:36;75.65;;;36.10;;
57858;SDS011;49153;45.568;11.894;2022-11-02T10:02:03;67.50;;;33.08;;
57858;SDS011;49153;45.568;11.894;2022-11-02T10:04:50;64.18;;;31.42;;
57858;SDS011;49153;45.568;11.894;2022-11-02T10:07:49;63.42;;;31.58;;
57858;SDS011;49153;45.568;11.894;2022-11-02T10:10:36;67.03;;;32.80;;
57858;SDS011;49153;45.568;11.894;2022-11-02T10:18:47;67.57;;;33.05;;
57858;SDS011;49153;45.568;11.894;2022-11-02T10:21:20;69.55;;;36.08;;
57858;SDS011;49153;45.568;11.894;2022-11-02T10:23:52;72.18;;;36.72;;
57858;SDS011;49153;45.568;11.894;2022-11-02T10:26:28;74.03;;;34.90;;
57858;SDS011;49153;45.568;11.894;2022-11-02T10:29:19;65.50;;;32.15;;
57858;SDS011;49153;45.568;11.894;2022-11-02T10:31:47;57.05;;;29.48;;
57858;SDS011;49153;45.568;11.894;2022-11-02T10:34:25;71.32;;;35.45;;
57858;SDS011;49153;45.568;11.894;2022-11-02T10:40:29;73.68;;;37.78;;
57858;SDS011;49153;45.568;11.894;2022-11-02T10:48:30;64.40;;;31.60;;
57858;SDS011;49153;45.568;11.894;2022-11-02T10:51:07;57.88;;;30.95;;
57858;SDS011;49153;45.568;11.894;2022-11-02T10:53:38;68.85;;;34.38;;
57858;SDS011;49153;45.568;11.894;2022-11-02T10:59:13;73.45;;;36.63;;
57858;SDS011;49153;45.568;11.894;2022-11-02T11:01:44;71.32;;;36.95;;
57858;SDS011;49153;45.568;11.894;2022-11-02T11:04:24;69.93;;;35.63;;
57858;SDS011;49153;45.568;11.894;2022-11-02T11:06:51;62.45;;;33.80;;
57858;SDS011;49153;45.568;11.894;2022-11-02T11:09:19;66.55;;;34.35;;
57858;SDS011;49153;45.568;11.894;2022-11-02T11:11:54;73.18;;;36.83;;
57858;SDS011;49153;45.568;11.894;2022-11-02T11:14:27;73.20;;;37.35;;
57858;SDS011;49153;45.568;11.894;2022-11-02T11:19:32;69.03;;;35.92;;
57858;SDS011;49153;45.568;11.894;2022-11-02T11:22:00;65.78;;;34.47;;
57858;SDS011;49153;45.568;11.894;2022-11-02T11:24:31;61.88;;;32.15;;
57858;SDS011;49153;45.568;11.894;2022-11-02T11:27:19;59.25;;;30.38;;
57858;SDS011;49153;45.568;11.894;2022-11-02T11:29:56;77.32;;;38.55;;
57858;SDS011;49153;45.568;11.894;2022-11-02T11:32:29;67.65;;;34.55;;
57858;SDS011;49153;45.568;11.894;2022-11-02T11:35:01;64.80;;;34.03;;
57858;SDS011;49153;45.568;11.894;2022-11-02T11:37:29;73.32;;;34.72;;
57858;SDS011;49153;45.568;11.894;2022-11-02T11:40:02;69.18;;;35.85;;
57858;SDS011;49153;45.568;11.894;2022-11-02T11:42:31;72.85;;;35.17;;
57858;SDS011;49153;45.568;11.894;2022-11-02T11:47:39;62.10;;;32.60;;
57858;SDS011;49153;45.568;11.894;2022-11-02T11:50:11;64.50;;;32.97;;
57858;SDS011;49153;45.568;11.894;2022-11-02T11:52:39;61.17;;;32.45;;
57858;SDS011;49153;45.568;11.894;2022-11-02T11:58:03;67.90;;;36.78;;
57858;SDS011;49153;45.568;11.894;2022-11-02T12:01:00;67.45;;;34.17;;
57858;SDS011;49153;45.568;11.894;2022-11-02T12:03:29;66.18;;;33.42;;
57858;SDS011;49153;45.568;11.894;2022-11-02T12:06:15;69.35;;;34.40;;
57858;SDS011;49153;45.568;11.894;2022-11-02T12:11:27;71.43;;;35.05;;
57858;SDS011;49153;45.568;11.894;2022-11-02T12:16:54;68.82;;;37.05;;
57858;SDS011;49153;45.568;11.894;2022-11-02T12:22:21;58.95;;;31.63;;
57858;SDS011;49153;45.568;11.894;2022-11-02T12:36:26;71.05;;;35.85;;
57858;SDS011;49153;45.568;11.894;2022-11-02T12:43:56;62.03;;;32.22;;
57858;SDS011;49153;45.568;11.894;2022-11-02T12:46:43;64.20;;;32.10;;
57858;SDS011;49153;45.568;11.894;2022-11-02T12:49:21;65.60;;;31.92;;
57858;SDS011;49153;45.568;11.894;2022-11-02T12:52:04;65.18;;;33.03;;
57858;SDS011;49153;45.568;11.894;2022-11-02T12:54:46;61.50;;;33.13;;
57858;SDS011;49153;45.568;11.894;2022-11-02T12:57:14;65.40;;;34.00;;
57858;SDS011;49153;45.568;11.894;2022-11-02T12:59:43;60.88;;;32.72;;
57858;SDS011;49153;45.568;11.894;2022-11-02T13:02:11;65.97;;;34.15;;
57858;SDS011;49153;45.568;11.894;2022-11-02T13:04:45;68.68;;;35.17;;
57858;SDS011;49153;45.568;11.894;2022-11-02T13:08:20;63.95;;;34.15;;
57858;SDS011;49153;45.568;11.894;2022-11-02T13:10:21;61.17;;;30.77;;
57858;SDS011;49153;45.568;11.894;2022-11-02T13:12:52;61.85;;;32.25;;
57858;SDS011;49153;45.568;11.894;2022-11-02T13:15:22;61.58;;;30.67;;
57858;SDS011;49153;45.568;11.894;2022-11-02T13:20:25;59.88;;;31.75;;
57858;SDS011;49153;45.568;11.894;2022-11-02T13:23:42;62.83;;;32.53;;
57858;SDS011;49153;45.568;11.894;2022-11-02T13:25:55;60.38;;;31.98;;
57858;SDS011;49153;45.568;11.894;2022-11-02T13:31:08;65.80;;;34.45;;
57858;SDS011;49153;45.568;11.894;2022-11-02T13:33:40;65.93;;;35.13;;
57858;SDS011;49153;45.568;11.894;2022-11-02T13:36:11;62.85;;;33.90;;
57858;SDS011;49153;45.568;11.894;2022-11-02T13:41:41;63.15;;;31.95;;
57858;SDS011;49153;45.568;11.894;2022-11-02T13:49:56;57.97;;;31.60;;
57858;SDS011;49153;45.568;11.894;2022-11-02T13:52:41;61.55;;;32.90;;
57858;SDS011;49153;45.568;11.894;2022-11-02T13:55:19;64.53;;;34.08;;
57858;SDS011;49153;45.568;11.894;2022-11-02T13:57:56;61.58;;;33.30;;
57858;SDS011;49153;45.568;11.894;2022-11-02T14:02:50;66.45;;;33.80;;
57858;SDS011;49153;45.568;11.894;2022-11-02T14:05:31;63.65;;;31.10;;
57858;SDS011;49153;45.568;11.894;2022-11-02T14:08:00;58.35;;;31.13;;
57858;SDS011;49153;45.568;11.894;2022-11-02T14:10:30;63.45;;;34.15;;
57858;SDS011;49153;45.568;11.894;2022-11-02T14:13:00;63.05;;;32.65;;
57858;SDS011;49153;45.568;11.894;2022-11-02T14:18:00;71.72;;;34.40;;
57858;SDS011;49153;45.568;11.894;2022-11-02T14:20:39;66.65;;;32.25;;
57858;SDS011;49153;45.568;11.894;2022-11-02T14:36:07;73.53;;;34.10;;
57858;SDS011;49153;45.568;11.894;2022-11-02T14:38:55;80.63;;;37.97;;
57858;SDS011;49153;45.568;11.894;2022-11-02T14:41:41;75.72;;;35.88;;
57858;SDS011;49153;45.568;11.894;2022-11-02T14:49:32;77.60;;;37.23;;
57858;SDS011;49153;45.568;11.894;2022-11-02T14:54:38;74.40;;;35.53;;
57858;SDS011;49153;45.568;11.894;2022-11-02T14:59:56;75.70;;;37.22;;
57858;SDS011;49153;45.568;11.894;2022-11-02T15:04:53;67.82;;;35.00;;
57858;SDS011;49153;45.568;11.894;2022-11-02T15:07:22;72.45;;;35.55;;
57858;SDS011;49153;45.568;11.894;2022-11-02T15:09:56;72.60;;;35.75;;
57858;SDS011;49153;45.568;11.894;2022-11-02T15:12:31;82.55;;;39.85;;
57858;SDS011;49153;45.568;11.894;2022-11-02T15:14:58;74.50;;;36.45;;
57858;SDS011;49153;45.568;11.894;2022-11-02T15:19:51;83.30;;;40.13;;
57858;SDS011;49153;45.568;11.894;2022-11-02T15:22:40;70.38;;;35.75;;
57858;SDS011;49153;45.568;11.894;2022-11-02T15:27:32;84.20;;;40.75;;
57858;SDS011;49153;45.568;11.894;2022-11-02T15:30:06;71.72;;;36.80;;
57858;SDS011;49153;45.568;11.894;2022-11-02T15:32:38;74.28;;;37.88;;
57858;SDS011;49153;45.568;11.894;2022-11-02T15:38:00;74.13;;;36.00;;
57858;SDS011;49153;45.568;11.894;2022-11-02T15:40:28;75.88;;;36.63;;
57858;SDS011;49153;45.568;11.894;2022-11-02T15:46:01;71.10;;;35.30;;
57858;SDS011;49153;45.568;11.894;2022-11-02T15:51:32;70.43;;;32.28;;
57858;SDS011;49153;45.568;11.894;2022-11-02T15:54:17;65.97;;;32.90;;
57858;SDS011;49153;45.568;11.894;2022-11-02T16:02:26;61.50;;;31.05;;
57858;SDS011;49153;45.568;11.894;2022-11-02T16:04:56;60.63;;;31.90;;
57858;SDS011;49153;45.568;11.894;2022-11-02T16:07:24;64.15;;;31.40;;
57858;SDS011;49153;45.568;11.894;2022-11-02T16:09:50;57.17;;;30.60;;
57858;SDS011;49153;45.568;11.894;2022-11-02T16:12:20;59.05;;;30.48;;
57858;SDS011;49153;45.568;11.894;2022-11-02T16:14:51;57.33;;;31.42;;
57858;SDS011;49153;45.568;11.894;2022-11-02T16:17:23;69.72;;;34.05;;
57858;SDS011;49153;45.568;11.894;2022-11-02T16:19:50;57.70;;;30.83;;
57858;SDS011;49153;45.568;11.894;2022-11-02T16:22:19;59.45;;;31.50;;
57858;SDS011;49153;45.568;11.894;2022-11-02T16:24:48;59.33;;;29.48;;
57858;SDS011;49153;45.568;11.894;2022-11-02T16:27:14;55.55;;;28.50;;
57858;SDS011;49153;45.568;11.894;2022-11-02T16:29:40;59.40;;;31.50;;
57858;SDS011;49153;45.568;11.894;2022-11-02T16:32:10;54.63;;;30.80;;
57858;SDS011;49153;45.568;11.894;2022-11-02T16:34:36;55.13;;;31.50;;
57858;SDS011;49153;45.568;11.894;2022-11-02T16:37:02;52.85;;;29.60;;
57858;SDS011;49153;45.568;11.894;2022-11-02T16:39:31;48.38;;;28.60;;
57858;SDS011;49153;45.568;11.894;2022-11-02T16:42:02;52.15;;;29.77;;
57858;SDS011;49153;45.568;11.894;2022-11-02T16:44:33;54.92;;;29.30;;
57858;SDS011;49153;45.568;11.894;2022-11-02T16:49:31;62.03;;;32.38;;